sensor_id;sensor_type;location;lat;lon;timestamp;temperature;humidity
4431;DHT22;2228;48.140;11.488;2023-05-16T00:00:05;10.90;65.30
4431;DHT22;2228;48.140;11.488;2023-05-16T00:02:33;10.90;47.50
4431;DHT22;2228;48.140;11.488;2023-05-16T00:05:00;10.90;68.30
4431;DHT22;2228;48.140;11.488;2023-05-16T00:07:29;10.80;99.90
4431;DHT22;2228;48.140;11.488;2023-05-16T00:09:57;10.60;99.90
4431;DHT22;2228;48.140;11.488;2023-05-16T00:12:24;10.40;99.90
4431;DHT22;2228;48.140;11.488;2023-05-16T00:14:51;10.50;99.90
4431;DHT22;2228;48.140;11.488;2023-05-16T00:17:18;10.70;99.90
4431;DHT22;2228;48.140;11.488;2023-05-16T00:19:45;10.80;99.90
4431;DHT22;2228;48.140;11.488;2023-05-16T00:22:13;10.80;99.90
4431;DHT22;2228;48.140;11.488;2023-05-16T00:24:40;10.70;86.60
4431;DHT22;2228;48.140;11.488;2023-05-16T00:27:08;10.50;99.90
4431;DHT22;2228;48.140;11.488;2023-05-16T00:29:35;10.50;99.90
4431;DHT22;2228;48.140;11.488;2023-05-16T00:32:01;10.70;99.90
4431;DHT22;2228;48.140;11.488;2023-05-16T00:34:28;10.80;99.90
4431;DHT22;2228;48.140;11.488;2023-05-16T00:36:55;11.00;41.20
4431;DHT22;2228;48.140;11.488;2023-05-16T00:39:22;10.80;58.30
4431;DHT22;2228;48.140;11.488;2023-05-16T00:41:49;10.80;78.10
4431;DHT22;2228;48.140;11.488;2023-05-16T00:44:17;10.90;97.40
4431;DHT22;2228;48.140;11.488;2023-05-16T00:46:44;10.80;75.60
4431;DHT22;2228;48.140;11.488;2023-05-16T00:49:11;10.50;99.90
4431;DHT22;2228;48.140;11.488;2023-05-16T00:51:38;10.30;99.90
4431;DHT22;2228;48.140;11.488;2023-05-16T00:54:05;10.20;99.90
4431;DHT22;2228;48.140;11.488;2023-05-16T00:56:33;10.40;99.90
4431;DHT22;2228;48.140;11.488;2023-05-16T00:59:00;10.60;99.90
4431;DHT22;2228;48.140;11.488;2023-05-16T01:01:30;10.70;99.90
4431;DHT22;2228;48.140;11.488;2023-05-16T01:03:57;10.60;99.90
4431;DHT22;2228;48.140;11.488;2023-05-16T01:06:25;10.50;99.90
4431;DHT22;2228;48.140;11.488;2023-05-16T01:08:52;10.30;99.90
4431;DHT22;2228;48.140;11.488;2023-05-16T01:11:24;10.50;99.90
4431;DHT22;2228;48.140;11.488;2023-05-16T01:13:59;10.40;99.90
4431;DHT22;2228;48.140;11.488;2023-05-16T01:16:38;10.40;99.90
4431;DHT22;2228;48.140;11.488;2023-05-16T01:19:12;10.70;99.90
4431;DHT22;2228;48.140;11.488;2023-05-16T01:21:47;10.90;99.90
4431;DHT22;2228;48.140;11.488;2023-05-16T01:24:26;10.80;92.80
4431;DHT22;2228;48.140;11.488;2023-05-16T01:26:58;10.80;99.90
4431;DHT22;2228;48.140;11.488;2023-05-16T01:29:25;10.90;14.50
4431;DHT22;2228;48.140;11.488;2023-05-16T01:31:52;10.90;58.70
4431;DHT22;2228;48.140;11.488;2023-05-16T01:34:19;11.00;99.90
4431;DHT22;2228;48.140;11.488;2023-05-16T01:36:51;10.80;19.10
4431;DHT22;2228;48.140;11.488;2023-05-16T01:39:29;10.90;57.60
4431;DHT22;2228;48.140;11.488;2023-05-16T01:42:03;10.70;99.90
4431;DHT22;2228;48.140;11.488;2023-05-16T01:44:34;10.80;99.90
4431;DHT22;2228;48.140;11.488;2023-05-16T01:47:10;11.00;20.70
4431;DHT22;2228;48.140;11.488;2023-05-16T01:49:42;10.60;99.90
4431;DHT22;2228;48.140;11.488;2023-05-16T01:52:14;10.50;99.90
4431;DHT22;2228;48.140;11.488;2023-05-16T01:54:44;10.40;99.90
4431;DHT22;2228;48.140;11.488;2023-05-16T01:57:13;10.60;99.90
4431;DHT22;2228;48.140;11.488;2023-05-16T01:59:40;10.60;99.90
4431;DHT22;2228;48.140;11.488;2023-05-16T02:02:08;10.70;99.90
4431;DHT22;2228;48.140;11.488;2023-05-16T02:04:35;10.80;90.50
4431;DHT22;2228;48.140;11.488;2023-05-16T02:07:02;10.70;99.90
4431;DHT22;2228;48.140;11.488;2023-05-16T02:09:29;10.60;99.90
4431;DHT22;2228;48.140;11.488;2023-05-16T02:11:56;10.60;99.90
4431;DHT22;2228;48.140;11.488;2023-05-16T02:14:24;10.60;99.90
4431;DHT22;2228;48.140;11.488;2023-05-16T02:16:51;10.40;99.90
4431;DHT22;2228;48.140;11.488;2023-05-16T02:19:18;10.30;99.90
4431;DHT22;2228;48.140;11.488;2023-05-16T02:21:45;10.40;99.90
4431;DHT22;2228;48.140;11.488;2023-05-16T02:24:12;10.40;99.90
4431;DHT22;2228;48.140;11.488;2023-05-16T02:26:38;10.40;99.90
4431;DHT22;2228;48.140;11.488;2023-05-16T02:29:05;10.30;99.90
4431;DHT22;2228;48.140;11.488;2023-05-16T02:31:33;10.30;99.90
4431;DHT22;2228;48.140;11.488;2023-05-16T02:34:01;10.40;99.90
4431;DHT22;2228;48.140;11.488;2023-05-16T02:36:28;10.40;99.90
4431;DHT22;2228;48.140;11.488;2023-05-16T02:38:55;10.40;99.90
4431;DHT22;2228;48.140;11.488;2023-05-16T02:41:22;10.50;99.90
4431;DHT22;2228;48.140;11.488;2023-05-16T02:43:49;10.60;99.90
4431;DHT22;2228;48.140;11.488;2023-05-16T02:46:23;10.70;99.90
4431;DHT22;2228;48.140;11.488;2023-05-16T02:48:52;10.70;99.90
4431;DHT22;2228;48.140;11.488;2023-05-16T02:51:19;10.50;99.90
4431;DHT22;2228;48.140;11.488;2023-05-16T02:53:47;10.30;99.90
4431;DHT22;2228;48.140;11.488;2023-05-16T02:56:14;10.40;99.90
4431;DHT22;2228;48.140;11.488;2023-05-16T02:58:41;10.40;99.90
4431;DHT22;2228;48.140;11.488;2023-05-16T03:01:08;10.50;99.90
4431;DHT22;2228;48.140;11.488;2023-05-16T03:03:35;10.50;92.50
4431;DHT22;2228;48.140;11.488;2023-05-16T03:06:04;10.50;80.80
4431;DHT22;2228;48.140;11.488;2023-05-16T03:08:31;10.60;94.90
4431;DHT22;2228;48.140;11.488;2023-05-16T03:10:57;10.60;65.80
4431;DHT22;2228;48.140;11.488;2023-05-16T03:13:24;10.50;76.00
4431;DHT22;2228;48.140;11.488;2023-05-16T03:15:51;10.50;99.90
4431;DHT22;2228;48.140;11.488;2023-05-16T03:18:18;10.50;99.90
4431;DHT22;2228;48.140;11.488;2023-05-16T03:20:45;10.60;99.90
4431;DHT22;2228;48.140;11.488;2023-05-16T03:23:13;10.50;60.40
4431;DHT22;2228;48.140;11.488;2023-05-16T03:25:40;10.50;99.90
4431;DHT22;2228;48.140;11.488;2023-05-16T03:28:08;10.50;31.80
4431;DHT22;2228;48.140;11.488;2023-05-16T03:30:35;10.50;99.90
4431;DHT22;2228;48.140;11.488;2023-05-16T03:33:02;10.50;99.90
4431;DHT22;2228;48.140;11.488;2023-05-16T03:35:30;10.60;99.90
4431;DHT22;2228;48.140;11.488;2023-05-16T03:37:57;10.40;99.90
4431;DHT22;2228;48.140;11.488;2023-05-16T03:40:25;10.40;90.50
4431;DHT22;2228;48.140;11.488;2023-05-16T03:42:52;10.30;99.90
4431;DHT22;2228;48.140;11.488;2023-05-16T03:45:19;10.30;99.90
4431;DHT22;2228;48.140;11.488;2023-05-16T03:47:47;10.20;99.90
4431;DHT22;2228;48.140;11.488;2023-05-16T03:50:14;10.30;99.90
4431;DHT22;2228;48.140;11.488;2023-05-16T03:52:41;10.40;99.90
4431;DHT22;2228;48.140;11.488;2023-05-16T03:55:08;10.20;99.90
4431;DHT22;2228;48.140;11.488;2023-05-16T03:57:40;10.30;99.90
4431;DHT22;2228;48.140;11.488;2023-05-16T04:00:08;10.30;83.60
4431;DHT22;2228;48.140;11.488;2023-05-16T04:02:35;10.20;99.90
4431;DHT22;2228;48.140;11.488;2023-05-16T04:05:02;10.30;99.90
4431;DHT22;2228;48.140;11.488;2023-05-16T04:07:29;10.30;99.90
4431;DHT22;2228;48.140;11.488;2023-05-16T04:09:56;10.40;99.90
4431;DHT22;2228;48.140;11.488;2023-05-16T04:12:23;10.50;86.90
4431;DHT22;2228;48.140;11.488;2023-05-16T04:14:51;10.50;79.40
4431;DHT22;2228;48.140;11.488;2023-05-16T04:17:18;10.50;60.00
4431;DHT22;2228;48.140;11.488;2023-05-16T04:19:45;10.50;99.90
4431;DHT22;2228;48.140;11.488;2023-05-16T04:22:12;10.50;93.30
4431;DHT22;2228;48.140;11.488;2023-05-16T04:24:38;10.50;99.90
4431;DHT22;2228;48.140;11.488;2023-05-16T04:27:06;10.60;63.30
4431;DHT22;2228;48.140;11.488;2023-05-16T04:29:33;10.70;31.10
4431;DHT22;2228;48.140;11.488;2023-05-16T04:32:02;10.50;59.80
4431;DHT22;2228;48.140;11.488;2023-05-16T04:34:28;10.50;99.90
4431;DHT22;2228;48.140;11.488;2023-05-16T04:36:55;10.70;99.90
4431;DHT22;2228;48.140;11.488;2023-05-16T04:39:22;10.70;99.90
4431;DHT22;2228;48.140;11.488;2023-05-16T04:41:49;10.60;93.90
4431;DHT22;2228;48.140;11.488;2023-05-16T04:44:16;10.50;24.30
4431;DHT22;2228;48.140;11.488;2023-05-16T04:46:43;10.50;99.90
4431;DHT22;2228;48.140;11.488;2023-05-16T04:49:11;10.60;99.90
4431;DHT22;2228;48.140;11.488;2023-05-16T04:51:38;10.70;58.70
4431;DHT22;2228;48.140;11.488;2023-05-16T04:54:05;10.90;21.00
4431;DHT22;2228;48.140;11.488;2023-05-16T04:56:33;10.90;1.00
4431;DHT22;2228;48.140;11.488;2023-05-16T04:59:00;11.00;1.00
4431;DHT22;2228;48.140;11.488;2023-05-16T05:01:27;11.00;1.00
4431;DHT22;2228;48.140;11.488;2023-05-16T05:03:53;11.00;1.00
4431;DHT22;2228;48.140;11.488;2023-05-16T05:06:22;11.00;1.00
4431;DHT22;2228;48.140;11.488;2023-05-16T05:08:49;10.90;1.00
4431;DHT22;2228;48.140;11.488;2023-05-16T05:11:15;10.90;1.00
4431;DHT22;2228;48.140;11.488;2023-05-16T05:13:42;10.90;1.00
4431;DHT22;2228;48.140;11.488;2023-05-16T05:16:09;11.10;1.00
4431;DHT22;2228;48.140;11.488;2023-05-16T05:18:36;11.20;1.00
4431;DHT22;2228;48.140;11.488;2023-05-16T05:21:03;11.30;1.00
4431;DHT22;2228;48.140;11.488;2023-05-16T05:23:31;11.50;1.00
4431;DHT22;2228;48.140;11.488;2023-05-16T05:25:59;11.50;1.00
4431;DHT22;2228;48.140;11.488;2023-05-16T05:28:27;11.50;1.00
4431;DHT22;2228;48.140;11.488;2023-05-16T05:30:54;11.60;1.00
4431;DHT22;2228;48.140;11.488;2023-05-16T05:33:25;11.70;1.00
4431;DHT22;2228;48.140;11.488;2023-05-16T05:35:53;11.80;1.00
4431;DHT22;2228;48.140;11.488;2023-05-16T05:38:20;11.90;1.00
4431;DHT22;2228;48.140;11.488;2023-05-16T05:40:48;12.00;1.00
4431;DHT22;2228;48.140;11.488;2023-05-16T05:43:15;11.90;1.00
4431;DHT22;2228;48.140;11.488;2023-05-16T05:45:42;11.90;1.00
4431;DHT22;2228;48.140;11.488;2023-05-16T05:48:10;11.80;99.90
4431;DHT22;2228;48.140;11.488;2023-05-16T05:50:37;11.70;1.00
4431;DHT22;2228;48.140;11.488;2023-05-16T05:53:04;11.60;1.00
4431;DHT22;2228;48.140;11.488;2023-05-16T05:55:31;11.40;1.00
4431;DHT22;2228;48.140;11.488;2023-05-16T05:57:59;11.50;1.00
4431;DHT22;2228;48.140;11.488;2023-05-16T06:00:27;11.50;1.00
4431;DHT22;2228;48.140;11.488;2023-05-16T06:02:54;11.60;1.00
4431;DHT22;2228;48.140;11.488;2023-05-16T06:05:21;11.50;1.00
4431;DHT22;2228;48.140;11.488;2023-05-16T06:07:48;11.20;1.00
4431;DHT22;2228;48.140;11.488;2023-05-16T06:10:15;11.70;1.00
4431;DHT22;2228;48.140;11.488;2023-05-16T06:12:42;11.40;1.00
4431;DHT22;2228;48.140;11.488;2023-05-16T06:15:11;11.40;1.00
4431;DHT22;2228;48.140;11.488;2023-05-16T06:17:38;11.40;1.00
4431;DHT22;2228;48.140;11.488;2023-05-16T06:20:06;11.30;1.00
4431;DHT22;2228;48.140;11.488;2023-05-16T06:22:33;11.20;1.00
4431;DHT22;2228;48.140;11.488;2023-05-16T06:25:00;11.40;1.00
4431;DHT22;2228;48.140;11.488;2023-05-16T06:27:27;11.60;1.00
4431;DHT22;2228;48.140;11.488;2023-05-16T06:29:54;11.60;1.00
4431;DHT22;2228;48.140;11.488;2023-05-16T06:32:22;11.70;1.00
4431;DHT22;2228;48.140;11.488;2023-05-16T06:34:49;11.70;1.00
4431;DHT22;2228;48.140;11.488;2023-05-16T06:37:16;11.70;1.00
4431;DHT22;2228;48.140;11.488;2023-05-16T06:39:43;11.60;1.00
4431;DHT22;2228;48.140;11.488;2023-05-16T06:42:11;12.00;1.00
4431;DHT22;2228;48.140;11.488;2023-05-16T06:44:38;12.10;1.00
4431;DHT22;2228;48.140;11.488;2023-05-16T06:47:05;12.40;1.00
4431;DHT22;2228;48.140;11.488;2023-05-16T06:49:34;12.50;99.90
4431;DHT22;2228;48.140;11.488;2023-05-16T06:52:01;12.60;99.90
4431;DHT22;2228;48.140;11.488;2023-05-16T06:54:28;12.60;99.90
4431;DHT22;2228;48.140;11.488;2023-05-16T06:56:55;12.60;99.90
4431;DHT22;2228;48.140;11.488;2023-05-16T06:59:22;12.70;99.90
4431;DHT22;2228;48.140;11.488;2023-05-16T07:01:49;12.80;99.90
4431;DHT22;2228;48.140;11.488;2023-05-16T07:04:15;13.00;99.90
4431;DHT22;2228;48.140;11.488;2023-05-16T07:06:44;13.10;99.90
4431;DHT22;2228;48.140;11.488;2023-05-16T07:09:11;13.10;99.90
4431;DHT22;2228;48.140;11.488;2023-05-16T07:11:37;13.00;99.90
4431;DHT22;2228;48.140;11.488;2023-05-16T07:14:04;13.10;99.90
4431;DHT22;2228;48.140;11.488;2023-05-16T07:16:31;13.20;99.90
4431;DHT22;2228;48.140;11.488;2023-05-16T07:18:58;13.40;99.90
4431;DHT22;2228;48.140;11.488;2023-05-16T07:21:25;13.60;99.90
4431;DHT22;2228;48.140;11.488;2023-05-16T07:23:53;13.70;99.90
4431;DHT22;2228;48.140;11.488;2023-05-16T07:26:20;13.80;99.90
4431;DHT22;2228;48.140;11.488;2023-05-16T07:28:49;14.00;99.90
4431;DHT22;2228;48.140;11.488;2023-05-16T07:31:16;14.10;99.90
4431;DHT22;2228;48.140;11.488;2023-05-16T07:33:43;13.90;99.90
4431;DHT22;2228;48.140;11.488;2023-05-16T07:36:11;13.70;99.90
4431;DHT22;2228;48.140;11.488;2023-05-16T07:38:38;13.70;99.90
4431;DHT22;2228;48.140;11.488;2023-05-16T07:41:07;13.40;99.90
4431;DHT22;2228;48.140;11.488;2023-05-16T07:43:34;13.20;99.90
4431;DHT22;2228;48.140;11.488;2023-05-16T07:46:01;13.10;99.90
4431;DHT22;2228;48.140;11.488;2023-05-16T07:48:28;13.00;99.90
4431;DHT22;2228;48.140;11.488;2023-05-16T07:50:55;12.60;99.90
4431;DHT22;2228;48.140;11.488;2023-05-16T07:53:22;12.60;99.90
4431;DHT22;2228;48.140;11.488;2023-05-16T07:55:49;12.60;99.90
4431;DHT22;2228;48.140;11.488;2023-05-16T07:58:17;12.60;99.90
4431;DHT22;2228;48.140;11.488;2023-05-16T08:00:44;12.40;1.00
4431;DHT22;2228;48.140;11.488;2023-05-16T08:03:11;12.40;1.00
4431;DHT22;2228;48.140;11.488;2023-05-16T08:05:38;12.40;1.00
4431;DHT22;2228;48.140;11.488;2023-05-16T08:08:05;12.00;1.00
4431;DHT22;2228;48.140;11.488;2023-05-16T08:10:32;11.80;1.00
4431;DHT22;2228;48.140;11.488;2023-05-16T08:12:59;11.90;1.00
4431;DHT22;2228;48.140;11.488;2023-05-16T08:15:28;11.80;1.00
4431;DHT22;2228;48.140;11.488;2023-05-16T08:17:56;11.80;90.60
4431;DHT22;2228;48.140;11.488;2023-05-16T08:20:23;11.60;99.90
4431;DHT22;2228;48.140;11.488;2023-05-16T08:22:50;11.70;99.90
4431;DHT22;2228;48.140;11.488;2023-05-16T08:25:17;11.80;99.90
4431;DHT22;2228;48.140;11.488;2023-05-16T08:27:44;11.80;99.90
4431;DHT22;2228;48.140;11.488;2023-05-16T08:30:12;11.90;99.90
4431;DHT22;2228;48.140;11.488;2023-05-16T08:32:40;11.90;99.90
4431;DHT22;2228;48.140;11.488;2023-05-16T08:35:07;11.90;99.90
4431;DHT22;2228;48.140;11.488;2023-05-16T08:37:35;12.00;99.90
4431;DHT22;2228;48.140;11.488;2023-05-16T08:40:04;12.20;93.80
4431;DHT22;2228;48.140;11.488;2023-05-16T08:42:33;12.20;1.00
4431;DHT22;2228;48.140;11.488;2023-05-16T08:45:00;12.10;1.00
4431;DHT22;2228;48.140;11.488;2023-05-16T08:47:30;12.00;90.30
4431;DHT22;2228;48.140;11.488;2023-05-16T08:50:02;11.90;48.70
4431;DHT22;2228;48.140;11.488;2023-05-16T08:52:30;11.80;99.90
4431;DHT22;2228;48.140;11.488;2023-05-16T08:55:01;11.80;99.90
4431;DHT22;2228;48.140;11.488;2023-05-16T08:57:31;11.80;99.90
4431;DHT22;2228;48.140;11.488;2023-05-16T08:59:59;11.90;99.90
4431;DHT22;2228;48.140;11.488;2023-05-16T09:02:26;12.00;99.90
4431;DHT22;2228;48.140;11.488;2023-05-16T09:04:53;12.10;99.90
4431;DHT22;2228;48.140;11.488;2023-05-16T09:07:24;12.20;99.90
4431;DHT22;2228;48.140;11.488;2023-05-16T09:09:51;12.40;76.50
4431;DHT22;2228;48.140;11.488;2023-05-16T09:12:19;12.30;99.90
4431;DHT22;2228;48.140;11.488;2023-05-16T09:14:46;12.30;99.90
4431;DHT22;2228;48.140;11.488;2023-05-16T09:17:13;12.50;99.90
4431;DHT22;2228;48.140;11.488;2023-05-16T09:19:41;12.70;1.00
4431;DHT22;2228;48.140;11.488;2023-05-16T09:22:09;12.80;1.00
4431;DHT22;2228;48.140;11.488;2023-05-16T09:24:39;13.00;1.00
4431;DHT22;2228;48.140;11.488;2023-05-16T09:27:07;13.00;1.00
4431;DHT22;2228;48.140;11.488;2023-05-16T09:29:34;12.90;1.00
4431;DHT22;2228;48.140;11.488;2023-05-16T09:32:08;12.90;1.00
4431;DHT22;2228;48.140;11.488;2023-05-16T09:34:37;12.90;1.00
4431;DHT22;2228;48.140;11.488;2023-05-16T09:37:05;12.80;1.00
4431;DHT22;2228;48.140;11.488;2023-05-16T09:39:32;12.70;1.00
4431;DHT22;2228;48.140;11.488;2023-05-16T09:42:00;12.70;1.00
4431;DHT22;2228;48.140;11.488;2023-05-16T09:44:27;12.60;7.10
4431;DHT22;2228;48.140;11.488;2023-05-16T09:46:54;12.60;99.90
4431;DHT22;2228;48.140;11.488;2023-05-16T09:49:21;12.60;99.90
4431;DHT22;2228;48.140;11.488;2023-05-16T09:51:49;12.60;99.90
4431;DHT22;2228;48.140;11.488;2023-05-16T09:54:29;12.70;99.90
4431;DHT22;2228;48.140;11.488;2023-05-16T09:56:57;12.70;28.70
4431;DHT22;2228;48.140;11.488;2023-05-16T09:59:27;12.50;99.90
4431;DHT22;2228;48.140;11.488;2023-05-16T10:01:56;12.50;99.90
4431;DHT22;2228;48.140;11.488;2023-05-16T10:04:23;12.70;75.00
4431;DHT22;2228;48.140;11.488;2023-05-16T10:06:50;12.40;1.00
4431;DHT22;2228;48.140;11.488;2023-05-16T10:09:17;12.40;99.90
4431;DHT22;2228;48.140;11.488;2023-05-16T10:11:45;12.60;99.90
4431;DHT22;2228;48.140;11.488;2023-05-16T10:14:15;12.70;36.60
4431;DHT22;2228;48.140;11.488;2023-05-16T10:16:46;12.70;1.00
4431;DHT22;2228;48.140;11.488;2023-05-16T10:19:15;12.90;1.00
4431;DHT22;2228;48.140;11.488;2023-05-16T10:21:47;13.10;1.00
4431;DHT22;2228;48.140;11.488;2023-05-16T10:24:20;13.10;1.00
4431;DHT22;2228;48.140;11.488;2023-05-16T10:26:48;13.00;1.00
4431;DHT22;2228;48.140;11.488;2023-05-16T10:29:17;12.80;1.00
4431;DHT22;2228;48.140;11.488;2023-05-16T10:31:47;12.80;14.00
4431;DHT22;2228;48.140;11.488;2023-05-16T10:34:15;12.70;1.00
4431;DHT22;2228;48.140;11.488;2023-05-16T10:36:43;12.50;99.90
4431;DHT22;2228;48.140;11.488;2023-05-16T10:39:11;12.40;99.90
4431;DHT22;2228;48.140;11.488;2023-05-16T10:41:39;12.30;99.90
4431;DHT22;2228;48.140;11.488;2023-05-16T10:44:12;12.20;99.90
4431;DHT22;2228;48.140;11.488;2023-05-16T10:46:40;12.20;99.90
4431;DHT22;2228;48.140;11.488;2023-05-16T10:49:24;12.40;99.90
4431;DHT22;2228;48.140;11.488;2023-05-16T10:52:06;12.20;99.90
4431;DHT22;2228;48.140;11.488;2023-05-16T10:54:35;12.20;99.90
4431;DHT22;2228;48.140;11.488;2023-05-16T10:57:08;12.20;99.90
4431;DHT22;2228;48.140;11.488;2023-05-16T10:59:43;12.30;99.90
4431;DHT22;2228;48.140;11.488;2023-05-16T11:02:22;12.20;99.90
4431;DHT22;2228;48.140;11.488;2023-05-16T11:04:54;12.00;99.90
4431;DHT22;2228;48.140;11.488;2023-05-16T11:07:23;11.80;1.00
4431;DHT22;2228;48.140;11.488;2023-05-16T11:10:02;11.80;1.00
4431;DHT22;2228;48.140;11.488;2023-05-16T11:12:43;11.90;1.00
4431;DHT22;2228;48.140;11.488;2023-05-16T11:15:21;11.90;1.00
4431;DHT22;2228;48.140;11.488;2023-05-16T11:17:49;12.00;1.00
4431;DHT22;2228;48.140;11.488;2023-05-16T11:20:28;12.20;1.00
4431;DHT22;2228;48.140;11.488;2023-05-16T11:23:21;12.00;1.00
4431;DHT22;2228;48.140;11.488;2023-05-16T11:25:52;12.10;99.90
4431;DHT22;2228;48.140;11.488;2023-05-16T11:28:19;12.10;99.90
4431;DHT22;2228;48.140;11.488;2023-05-16T11:30:47;11.90;1.00
4431;DHT22;2228;48.140;11.488;2023-05-16T11:33:14;11.60;1.00
4431;DHT22;2228;48.140;11.488;2023-05-16T11:35:43;11.70;1.00
4431;DHT22;2228;48.140;11.488;2023-05-16T11:38:13;11.80;1.00
4431;DHT22;2228;48.140;11.488;2023-05-16T11:40:42;11.70;2.60
4431;DHT22;2228;48.140;11.488;2023-05-16T11:43:10;11.80;1.00
4431;DHT22;2228;48.140;11.488;2023-05-16T11:45:37;11.70;1.00
4431;DHT22;2228;48.140;11.488;2023-05-16T11:48:04;11.70;1.00
4431;DHT22;2228;48.140;11.488;2023-05-16T11:50:33;11.80;15.70
4431;DHT22;2228;48.140;11.488;2023-05-16T11:53:02;11.80;8.00
4431;DHT22;2228;48.140;11.488;2023-05-16T11:55:30;11.90;16.00
4431;DHT22;2228;48.140;11.488;2023-05-16T11:57:59;12.00;55.10
4431;DHT22;2228;48.140;11.488;2023-05-16T12:00:27;12.30;99.90
4431;DHT22;2228;48.140;11.488;2023-05-16T12:02:59;12.60;1.00
4431;DHT22;2228;48.140;11.488;2023-05-16T12:05:27;12.80;12.40
4431;DHT22;2228;48.140;11.488;2023-05-16T12:07:55;13.10;99.90
4431;DHT22;2228;48.140;11.488;2023-05-16T12:10:23;13.50;99.90
4431;DHT22;2228;48.140;11.488;2023-05-16T12:12:51;13.80;1.00
4431;DHT22;2228;48.140;11.488;2023-05-16T12:15:18;13.60;99.90
4431;DHT22;2228;48.140;11.488;2023-05-16T12:17:46;13.40;99.90
4431;DHT22;2228;48.140;11.488;2023-05-16T12:20:14;13.70;99.90
4431;DHT22;2228;48.140;11.488;2023-05-16T12:22:42;13.90;68.40
4431;DHT22;2228;48.140;11.488;2023-05-16T12:25:25;14.00;1.00
4431;DHT22;2228;48.140;11.488;2023-05-16T12:27:53;14.30;1.00
4431;DHT22;2228;48.140;11.488;2023-05-16T12:30:23;14.60;1.00
4431;DHT22;2228;48.140;11.488;2023-05-16T12:32:57;14.60;23.80
4431;DHT22;2228;48.140;11.488;2023-05-16T12:35:24;14.80;79.30
4431;DHT22;2228;48.140;11.488;2023-05-16T12:37:52;15.20;1.00
4431;DHT22;2228;48.140;11.488;2023-05-16T12:40:19;15.40;1.00
4431;DHT22;2228;48.140;11.488;2023-05-16T12:42:49;15.60;1.00
4431;DHT22;2228;48.140;11.488;2023-05-16T12:45:17;15.50;99.90
4431;DHT22;2228;48.140;11.488;2023-05-16T12:47:44;15.50;1.00
4431;DHT22;2228;48.140;11.488;2023-05-16T12:50:13;15.30;1.00
4431;DHT22;2228;48.140;11.488;2023-05-16T12:52:48;15.40;1.00
4431;DHT22;2228;48.140;11.488;2023-05-16T12:55:16;15.30;1.00
4431;DHT22;2228;48.140;11.488;2023-05-16T12:57:43;15.30;1.00
4431;DHT22;2228;48.140;11.488;2023-05-16T13:00:14;15.70;1.00
4431;DHT22;2228;48.140;11.488;2023-05-16T13:02:43;16.20;99.90
4431;DHT22;2228;48.140;11.488;2023-05-16T13:05:11;16.40;99.90
4431;DHT22;2228;48.140;11.488;2023-05-16T13:07:38;16.40;1.00
4431;DHT22;2228;48.140;11.488;2023-05-16T13:10:06;16.90;99.90
4431;DHT22;2228;48.140;11.488;2023-05-16T13:12:35;17.30;99.90
4431;DHT22;2228;48.140;11.488;2023-05-16T13:15:03;17.50;99.90
4431;DHT22;2228;48.140;11.488;2023-05-16T13:17:33;17.40;99.90
4431;DHT22;2228;48.140;11.488;2023-05-16T13:20:01;17.00;99.90
4431;DHT22;2228;48.140;11.488;2023-05-16T13:22:29;17.00;99.90
4431;DHT22;2228;48.140;11.488;2023-05-16T13:24:56;16.90;99.90
4431;DHT22;2228;48.140;11.488;2023-05-16T13:27:23;16.40;99.90
4431;DHT22;2228;48.140;11.488;2023-05-16T13:29:50;15.60;1.00
4431;DHT22;2228;48.140;11.488;2023-05-16T13:32:17;15.00;1.00
4431;DHT22;2228;48.140;11.488;2023-05-16T13:34:45;14.50;1.00
4431;DHT22;2228;48.140;11.488;2023-05-16T13:37:12;14.00;1.00
4431;DHT22;2228;48.140;11.488;2023-05-16T13:39:39;13.40;1.00
4431;DHT22;2228;48.140;11.488;2023-05-16T13:42:06;13.10;1.00
4431;DHT22;2228;48.140;11.488;2023-05-16T13:44:33;12.90;1.00
4431;DHT22;2228;48.140;11.488;2023-05-16T13:46:59;12.70;1.00
4431;DHT22;2228;48.140;11.488;2023-05-16T13:49:27;12.60;99.90
4431;DHT22;2228;48.140;11.488;2023-05-16T13:51:55;12.50;99.90
4431;DHT22;2228;48.140;11.488;2023-05-16T13:54:23;12.60;99.90
4431;DHT22;2228;48.140;11.488;2023-05-16T13:56:51;12.60;99.90
4431;DHT22;2228;48.140;11.488;2023-05-16T13:59:17;12.60;1.00
4431;DHT22;2228;48.140;11.488;2023-05-16T14:01:44;12.50;99.90
4431;DHT22;2228;48.140;11.488;2023-05-16T14:04:11;12.70;99.90
4431;DHT22;2228;48.140;11.488;2023-05-16T14:06:38;12.60;20.60
4431;DHT22;2228;48.140;11.488;2023-05-16T14:09:07;12.50;1.00
4431;DHT22;2228;48.140;11.488;2023-05-16T14:11:34;12.50;99.90
4431;DHT22;2228;48.140;11.488;2023-05-16T14:14:03;12.30;99.90
4431;DHT22;2228;48.140;11.488;2023-05-16T14:16:32;12.10;93.50
4431;DHT22;2228;48.140;11.488;2023-05-16T14:18:59;12.10;99.90
4431;DHT22;2228;48.140;11.488;2023-05-16T14:21:26;12.10;99.90
4431;DHT22;2228;48.140;11.488;2023-05-16T14:23:53;11.80;99.90
4431;DHT22;2228;48.140;11.488;2023-05-16T14:26:21;11.70;99.90
4431;DHT22;2228;48.140;11.488;2023-05-16T14:28:49;11.60;99.90
4431;DHT22;2228;48.140;11.488;2023-05-16T14:31:16;11.60;99.90
4431;DHT22;2228;48.140;11.488;2023-05-16T14:33:43;11.50;1.00
4431;DHT22;2228;48.140;11.488;2023-05-16T14:36:10;11.40;99.90
4431;DHT22;2228;48.140;11.488;2023-05-16T14:38:37;11.40;99.90
4431;DHT22;2228;48.140;11.488;2023-05-16T14:41:04;11.40;1.00
4431;DHT22;2228;48.140;11.488;2023-05-16T14:43:32;11.30;1.00
4431;DHT22;2228;48.140;11.488;2023-05-16T14:45:59;11.30;1.00
4431;DHT22;2228;48.140;11.488;2023-05-16T14:48:27;11.20;1.00
4431;DHT22;2228;48.140;11.488;2023-05-16T14:50:54;11.30;1.00
4431;DHT22;2228;48.140;11.488;2023-05-16T14:53:21;11.30;1.00
4431;DHT22;2228;48.140;11.488;2023-05-16T14:55:48;11.40;1.00
4431;DHT22;2228;48.140;11.488;2023-05-16T14:58:14;11.50;1.00
4431;DHT22;2228;48.140;11.488;2023-05-16T15:00:43;11.50;1.00
4431;DHT22;2228;48.140;11.488;2023-05-16T15:03:09;11.70;1.00
4431;DHT22;2228;48.140;11.488;2023-05-16T15:05:36;11.70;1.00
4431;DHT22;2228;48.140;11.488;2023-05-16T15:08:03;11.70;99.90
4431;DHT22;2228;48.140;11.488;2023-05-16T15:10:30;11.60;99.90
4431;DHT22;2228;48.140;11.488;2023-05-16T15:12:57;11.60;1.00
4431;DHT22;2228;48.140;11.488;2023-05-16T15:15:24;11.60;1.00
4431;DHT22;2228;48.140;11.488;2023-05-16T15:17:52;11.60;1.00
4431;DHT22;2228;48.140;11.488;2023-05-16T15:20:19;11.70;1.00
4431;DHT22;2228;48.140;11.488;2023-05-16T15:22:47;11.80;1.00
4431;DHT22;2228;48.140;11.488;2023-05-16T15:25:15;11.70;1.00
4431;DHT22;2228;48.140;11.488;2023-05-16T15:27:42;11.70;99.90
4431;DHT22;2228;48.140;11.488;2023-05-16T15:30:10;11.70;1.00
4431;DHT22;2228;48.140;11.488;2023-05-16T15:32:37;11.80;1.00
4431;DHT22;2228;48.140;11.488;2023-05-16T15:35:06;11.90;1.00
4431;DHT22;2228;48.140;11.488;2023-05-16T15:37:33;12.10;1.00
4431;DHT22;2228;48.140;11.488;2023-05-16T15:40:00;12.20;1.00
4431;DHT22;2228;48.140;11.488;2023-05-16T15:42:29;12.40;1.00
4431;DHT22;2228;48.140;11.488;2023-05-16T15:44:55;12.30;99.90
4431;DHT22;2228;48.140;11.488;2023-05-16T15:47:22;12.20;99.90
4431;DHT22;2228;48.140;11.488;2023-05-16T15:49:49;12.00;99.90
4431;DHT22;2228;48.140;11.488;2023-05-16T15:52:17;11.90;99.90
4431;DHT22;2228;48.140;11.488;2023-05-16T15:54:44;11.80;1.00
4431;DHT22;2228;48.140;11.488;2023-05-16T15:57:11;11.80;1.00